createdAt,value
2024-02-08T00:01:12.045Z,100.00
2024-02-08T00:06:15.649Z,100.00
2024-02-08T00:11:19.188Z,100.00
2024-02-08T00:16:24.184Z,100.00
2024-02-08T00:21:29.096Z,100.00
2024-02-08T00:26:32.934Z,100.00
2024-02-08T00:31:38.062Z,100.00
2024-02-08T00:36:41.391Z,100.00
2024-02-08T00:41:50.695Z,100.00
2024-02-08T00:46:59.434Z,100.00
2024-02-08T00:52:05.994Z,100.00
2024-02-08T00:57:17.033Z,100.00
2024-02-08T01:02:21.947Z,100.00
2024-02-08T01:07:25.626Z,100.00
2024-02-08T01:12:29.755Z,100.00
2024-02-08T01:17:36.461Z,100.00
2024-02-08T01:22:47.493Z,100.00
2024-02-08T01:27:56.612Z,100.00
2024-02-08T01:33:02.038Z,100.00
2024-02-08T01:38:19.607Z,100.00
2024-02-08T01:43:26.452Z,100.00
2024-02-08T01:48:34.144Z,100.00
2024-02-08T01:53:37.810Z,100.00
2024-02-08T01:58:43.427Z,100.00
2024-02-08T02:03:48.643Z,100.00
2024-02-08T02:08:59.398Z,100.00
2024-02-08T02:14:03.682Z,100.00
2024-02-08T02:19:10.344Z,100.00
2024-02-08T02:24:15.764Z,100.00
2024-02-08T02:29:22.487Z,100.00
2024-02-08T02:34:27.353Z,100.00
2024-02-08T02:39:33.751Z,100.00
2024-02-08T02:44:37.309Z,100.00
2024-02-08T02:49:40.821Z,100.00
2024-02-08T02:54:45.578Z,100.00
2024-02-08T02:59:48.828Z,100.00
2024-02-08T03:04:52.157Z,100.00
2024-02-08T03:09:56.919Z,100.00
2024-02-08T03:15:02.738Z,100.00
2024-02-08T03:20:07.681Z,100.00
2024-02-08T03:25:15.819Z,100.00
2024-02-08T03:30:21.708Z,100.00
2024-02-08T03:35:29.549Z,100.00
2024-02-08T03:40:34.841Z,100.00
2024-02-08T03:45:41.269Z,100.00
2024-02-08T03:50:44.574Z,100.00
2024-02-08T03:55:49.597Z,100.00
2024-02-08T04:00:55.662Z,100.00
2024-02-08T04:06:01.864Z,100.00
2024-02-08T04:11:24.024Z,100.00
2024-02-08T04:16:44.643Z,100.00
2024-02-08T04:22:05.311Z,100.00
2024-02-08T04:27:27.794Z,100.00
2024-02-08T04:32:47.401Z,100.00
2024-02-08T04:38:08.897Z,100.00
2024-02-08T04:43:31.105Z,100.00
2024-02-08T04:48:52.299Z,100.00
2024-02-08T04:53:59.589Z,100.00
2024-02-08T04:59:20.520Z,100.00
2024-02-08T05:04:26.644Z,100.00
2024-02-08T05:09:29.994Z,100.00
2024-02-08T05:14:36.519Z,100.00
2024-02-08T05:19:46.157Z,100.00
2024-02-08T05:24:49.714Z,100.00
2024-02-08T05:29:57.415Z,100.00
2024-02-08T05:35:03.380Z,100.00
2024-02-08T05:40:08.006Z,100.00
2024-02-08T05:45:29.854Z,100.00
2024-02-08T05:50:33.194Z,100.00
2024-02-08T05:55:36.933Z,100.00
2024-02-08T06:00:47.392Z,100.00
2024-02-08T06:05:51.006Z,100.00
2024-02-08T06:10:54.964Z,100.00
2024-02-08T06:16:09.814Z,100.00
2024-02-08T06:21:15.455Z,100.00
2024-02-08T06:26:30.172Z,100.00
2024-02-08T06:31:42.774Z,100.00
2024-02-08T06:37:00.334Z,100.00
2024-02-08T06:42:29.639Z,100.00
2024-02-08T06:47:48.145Z,100.00
2024-02-08T06:53:09.031Z,100.00
2024-02-08T06:58:30.001Z,100.00
2024-02-08T07:03:52.339Z,100.00
2024-02-08T07:09:13.395Z,100.00
2024-02-08T07:14:33.997Z,100.00
2024-02-08T07:19:55.821Z,100.00
2024-02-08T07:25:16.650Z,100.00
2024-02-08T07:30:37.472Z,100.00
2024-02-08T07:35:59.647Z,100.00
2024-02-08T07:41:02.872Z,100.00
2024-02-08T07:46:18.352Z,100.00
2024-02-08T07:51:27.483Z,100.00
2024-02-08T07:56:38.898Z,100.00
2024-02-08T08:01:45.713Z,100.00
2024-02-08T08:06:51.364Z,100.00
2024-02-08T08:11:55.860Z,100.00
2024-02-08T08:17:18.726Z,100.00
2024-02-08T08:22:38.069Z,100.00
2024-02-08T08:27:54.353Z,100.00
2024-02-08T08:33:08.797Z,100.00
2024-02-08T08:38:30.439Z,100.00
2024-02-08T08:43:35.817Z,100.00
2024-02-08T08:48:40.523Z,100.00
2024-02-08T08:53:46.265Z,100.00
2024-02-08T08:58:51.422Z,100.00
2024-02-08T09:04:10.862Z,100.00
2024-02-08T09:09:29.895Z,100.00
2024-02-08T09:14:33.985Z,100.00
2024-02-08T09:19:39.369Z,100.00
2024-02-08T09:24:46.290Z,100.00
2024-02-08T09:29:58.219Z,100.00
2024-02-08T09:35:01.889Z,100.00
2024-02-08T09:40:19.904Z,100.00
2024-02-08T09:45:46.546Z,100.00
2024-02-08T09:50:52.227Z,100.00
2024-02-08T09:56:01.068Z,100.00
2024-02-08T10:01:22.914Z,100.00
2024-02-08T10:06:40.433Z,100.00
2024-02-08T10:11:55.525Z,100.00
2024-02-08T10:17:02.947Z,100.00
2024-02-08T10:22:19.636Z,100.00
2024-02-08T10:27:24.942Z,100.00
2024-02-08T10:32:29.422Z,100.00
2024-02-08T10:37:47.161Z,100.00
2024-02-08T10:42:55.290Z,100.00
2024-02-08T10:48:00.906Z,98.67
2024-02-08T10:53:17.493Z,98.66
2024-02-08T10:58:28.939Z,97.26
2024-02-08T11:03:36.263Z,96.93
2024-02-08T11:08:51.912Z,95.88
2024-02-08T11:14:01.256Z,95.01
2024-02-08T11:19:06.388Z,94.50
2024-02-08T11:24:10.214Z,93.36
2024-02-08T11:29:20.222Z,92.72
2024-02-08T11:34:35.531Z,92.92
2024-02-08T11:39:41.592Z,92.83
2024-02-08T11:44:47.761Z,91.52
2024-02-08T11:50:02.735Z,90.59
2024-02-08T11:55:10.317Z,91.65
2024-02-08T12:00:20.009Z,90.91
2024-02-08T12:05:23.524Z,90.56
2024-02-08T12:10:26.961Z,90.28
2024-02-08T12:15:35.828Z,90.24
2024-02-08T12:20:39.399Z,89.83
2024-02-08T12:25:45.082Z,89.80
2024-02-08T12:30:52.376Z,90.70
2024-02-08T12:35:56.435Z,91.05
2024-02-08T12:41:03.914Z,90.77
2024-02-08T12:46:09.364Z,90.63
2024-02-08T12:51:15.695Z,90.50
2024-02-08T12:56:23.515Z,90.50
2024-02-08T13:01:38.317Z,89.89
2024-02-08T13:06:41.856Z,89.81
2024-02-08T13:11:46.125Z,89.76
2024-02-08T13:16:52.026Z,89.91
2024-02-08T13:21:57.394Z,88.92
2024-02-08T13:27:04.389Z,89.56
2024-02-08T13:32:09.439Z,89.08
2024-02-08T13:37:19.826Z,88.23
2024-02-08T13:42:31.935Z,88.64
2024-02-08T13:47:51.399Z,89.37
2024-02-08T13:52:55.190Z,90.46
2024-02-08T13:58:01.100Z,90.64
2024-02-08T14:03:09.789Z,90.55
2024-02-08T14:08:19.419Z,92.22
2024-02-08T14:13:37.349Z,91.55
2024-02-08T14:18:50.937Z,92.88
2024-02-08T14:24:02.181Z,92.18
2024-02-08T14:29:07.409Z,92.94
2024-02-08T14:34:14.031Z,93.56
2024-02-08T14:39:30.647Z,94.94
2024-02-08T14:44:42.433Z,95.50
2024-02-08T14:50:02.517Z,97.28
2024-02-08T14:55:22.667Z,97.77
2024-02-08T15:00:44.866Z,100.00
2024-02-08T15:05:50.662Z,100.00
2024-02-08T15:11:04.219Z,100.00
2024-02-08T15:16:14.766Z,100.00
2024-02-08T15:21:25.774Z,100.00
2024-02-08T15:26:38.671Z,100.00
2024-02-08T15:31:49.296Z,100.00
2024-02-08T15:37:15.266Z,100.00
2024-02-08T15:42:33.692Z,100.00
2024-02-08T15:47:39.126Z,100.00
2024-02-08T15:52:44.340Z,100.00
2024-02-08T15:57:56.198Z,100.00
2024-02-08T16:03:03.730Z,100.00
2024-02-08T16:08:09.095Z,100.00
2024-02-08T16:13:20.135Z,100.00
2024-02-08T16:18:27.178Z,100.00
2024-02-08T16:23:45.491Z,100.00
2024-02-08T16:28:51.483Z,100.00
2024-02-08T16:34:09.776Z,100.00
2024-02-08T16:39:34.839Z,100.00
2024-02-08T16:44:52.200Z,100.00
2024-02-08T16:50:00.673Z,100.00
2024-02-08T16:55:14.886Z,100.00
2024-02-08T17:00:49.334Z,100.00
2024-02-08T17:05:55.427Z,100.00
2024-02-08T17:11:03.212Z,100.00
2024-02-08T17:16:26.381Z,100.00
2024-02-08T17:21:46.430Z,100.00
2024-02-08T17:27:00.952Z,100.00
2024-02-08T17:32:14.225Z,100.00
2024-02-08T17:37:19.553Z,100.00
2024-02-08T17:42:24.737Z,100.00
2024-02-08T17:47:30.102Z,100.00
2024-02-08T17:52:36.137Z,100.00
2024-02-08T17:57:43.493Z,100.00
2024-02-08T18:02:51.493Z,100.00
2024-02-08T18:07:57.129Z,100.00
2024-02-08T18:13:02.988Z,100.00
2024-02-08T18:18:08.698Z,100.00
2024-02-08T18:23:20.473Z,100.00
2024-02-08T18:28:30.741Z,100.00
2024-02-08T18:33:39.313Z,100.00
2024-02-08T18:38:49.269Z,100.00
2024-02-08T18:43:54.476Z,100.00
2024-02-08T18:49:02.590Z,100.00
2024-02-08T18:54:13.040Z,100.00
2024-02-08T18:59:19.111Z,100.00
2024-02-08T19:04:22.639Z,100.00
2024-02-08T19:09:31.306Z,100.00
2024-02-08T19:14:36.108Z,100.00
2024-02-08T19:19:42.083Z,100.00
2024-02-08T19:24:47.385Z,100.00
2024-02-08T19:35:11.445Z,100.00
2024-02-08T19:40:22.028Z,100.00
2024-02-08T19:45:32.431Z,100.00
2024-02-08T19:50:43.934Z,100.00
2024-02-08T19:55:49.248Z,100.00
2024-02-08T20:00:54.071Z,100.00
2024-02-08T20:06:00.831Z,100.00
2024-02-08T20:11:13.126Z,100.00
2024-02-08T20:16:25.907Z,100.00
2024-02-08T20:21:34.087Z,100.00
2024-02-08T20:26:37.835Z,100.00
2024-02-08T20:31:49.990Z,100.00
2024-02-08T20:36:59.881Z,100.00
2024-02-08T20:42:06.437Z,100.00
2024-02-08T20:47:13.253Z,100.00
2024-02-08T20:52:19.507Z,100.00
2024-02-08T20:57:24.884Z,100.00
2024-02-08T21:02:29.635Z,100.00
2024-02-08T21:07:34.575Z,100.00
2024-02-08T21:12:39.715Z,100.00
2024-02-08T21:17:47.850Z,100.00
2024-02-08T21:22:53.824Z,100.00
2024-02-08T21:28:00.561Z,100.00
2024-02-08T21:33:06.752Z,100.00
2024-02-08T21:38:11.881Z,100.00
2024-02-08T21:43:16.957Z,100.00
2024-02-08T21:48:25.624Z,100.00
2024-02-08T21:53:31.057Z,100.00
2024-02-08T21:58:35.729Z,100.00
2024-02-08T22:03:39.327Z,100.00
2024-02-08T22:08:49.822Z,100.00
2024-02-08T22:13:57.985Z,100.00
2024-02-08T22:19:04.244Z,100.00
2024-02-08T22:24:12.516Z,100.00
2024-02-08T22:29:16.856Z,100.00
2024-02-08T22:34:25.119Z,100.00
2024-02-08T22:39:30.915Z,100.00
2024-02-08T22:44:35.190Z,100.00
2024-02-08T22:49:43.549Z,100.00
2024-02-08T22:54:52.457Z,100.00
2024-02-08T22:59:56.936Z,100.00
2024-02-08T23:05:00.698Z,100.00
2024-02-08T23:10:07.596Z,100.00
2024-02-08T23:15:21.246Z,100.00
2024-02-08T23:20:25.172Z,100.00
2024-02-08T23:25:30.121Z,100.00
2024-02-08T23:30:33.876Z,100.00
2024-02-08T23:35:38.820Z,100.00
2024-02-08T23:40:43.692Z,100.00
2024-02-08T23:45:47.188Z,100.00
2024-02-08T23:50:50.912Z,100.00
2024-02-08T23:55:57.174Z,100.00
